createdAt,value
2018-01-26T00:01:18.344Z,95283
2018-01-26T00:03:46.444Z,95278
2018-01-26T00:06:14.552Z,95290
2018-01-26T00:08:42.674Z,95278
2018-01-26T00:11:10.836Z,95289
2018-01-26T00:13:38.927Z,95290
2018-01-26T00:16:07.792Z,95289
2018-01-26T00:18:36.026Z,95279
2018-01-26T00:21:04.204Z,95284
2018-01-26T00:23:32.304Z,95289
2018-01-26T00:26:00.399Z,95284
2018-01-26T00:28:28.497Z,95283
2018-01-26T00:30:56.593Z,95280
2018-01-26T00:33:24.723Z,95272
2018-01-26T00:35:52.863Z,95279
2018-01-26T00:38:20.972Z,95272
2018-01-26T00:40:49.047Z,95278
2018-01-26T00:43:17.227Z,95290
2018-01-26T00:45:45.908Z,95282
2018-01-26T00:48:14.035Z,95283
2018-01-26T00:50:42.238Z,95276
2018-01-26T00:53:10.428Z,95290
2018-01-26T00:55:38.511Z,95282
2018-01-26T00:58:06.631Z,95281
2018-01-26T01:00:34.744Z,95295
2018-01-26T01:03:02.844Z,95285
2018-01-26T01:05:30.919Z,95276
2018-01-26T01:07:59.776Z,95282
2018-01-26T01:10:27.871Z,95289
2018-01-26T01:12:55.968Z,95275
2018-01-26T01:15:24.066Z,95281
2018-01-26T01:17:52.148Z,95276
2018-01-26T01:20:20.252Z,95276
2018-01-26T01:22:48.374Z,95273
2018-01-26T01:25:16.464Z,95270
2018-01-26T01:27:45.150Z,95268
2018-01-26T01:30:13.286Z,95258
2018-01-26T01:32:41.400Z,95259
2018-01-26T01:35:09.486Z,95255
2018-01-26T01:37:37.592Z,95257
2018-01-26T01:40:05.688Z,95257
2018-01-26T01:42:33.783Z,95256
2018-01-26T01:45:01.899Z,95247
2018-01-26T01:47:29.990Z,95250
2018-01-26T01:49:58.871Z,95247
2018-01-26T01:52:26.959Z,95246
2018-01-26T01:54:55.063Z,95244
2018-01-26T01:57:23.151Z,95240
2018-01-26T01:59:51.245Z,95227
2018-01-26T02:02:19.340Z,95227
2018-01-26T02:04:47.439Z,95231
2018-01-26T02:07:15.561Z,95237
2018-01-26T02:09:43.669Z,95230
2018-01-26T02:12:11.759Z,95230
2018-01-26T02:14:39.871Z,95212
2018-01-26T02:17:07.967Z,95209
2018-01-26T02:19:36.092Z,95219
2018-01-26T02:22:04.929Z,95219
2018-01-26T02:24:33.071Z,95208
2018-01-26T02:27:01.166Z,95218
2018-01-26T02:29:30.141Z,95207
2018-01-26T02:31:58.370Z,95197
2018-01-26T02:34:26.497Z,95206
2018-01-26T02:36:54.593Z,95185
2018-01-26T02:39:22.676Z,95189
2018-01-26T02:41:50.806Z,95196
2018-01-26T02:44:18.870Z,95207
2018-01-26T02:46:46.966Z,95207
2018-01-26T02:49:15.820Z,95212
2018-01-26T02:51:43.916Z,95217
2018-01-26T02:54:12.001Z,95214
2018-01-26T02:56:40.074Z,95210
2018-01-26T02:59:08.946Z,95212
2018-01-26T03:01:37.036Z,95207
2018-01-26T03:04:05.913Z,95212
2018-01-26T03:06:33.997Z,95210
2018-01-26T03:09:02.859Z,95198
2018-01-26T03:11:30.960Z,95201
2018-01-26T03:13:59.815Z,95192
2018-01-26T03:16:27.920Z,95193
2018-01-26T03:18:56.787Z,95190
2018-01-26T03:21:24.905Z,95198
2018-01-26T03:23:52.992Z,95189
2018-01-26T03:26:21.070Z,95204
2018-01-26T03:28:49.210Z,95192
2018-01-26T03:31:17.339Z,95187
2018-01-26T03:33:45.459Z,95190
2018-01-26T03:36:13.563Z,95189
2018-01-26T03:38:41.637Z,95185
2018-01-26T03:41:09.742Z,95176
2018-01-26T03:43:38.171Z,95188
2018-01-26T03:46:06.279Z,95189
2018-01-26T03:48:34.357Z,95192
2018-01-26T03:51:02.462Z,95190
2018-01-26T03:53:30.600Z,95185
2018-01-26T03:55:59.118Z,95184
2018-01-26T03:58:27.966Z,95194
2018-01-26T04:00:56.134Z,95189
2018-01-26T04:03:24.224Z,95194
2018-01-26T04:05:52.310Z,95209
2018-01-26T04:08:20.402Z,95206
2018-01-26T04:10:48.492Z,95205
2018-01-26T04:13:16.580Z,95197
2018-01-26T04:15:44.718Z,95203
2018-01-26T04:18:12.830Z,95189
2018-01-26T04:20:41.448Z,95187
2018-01-26T04:23:09.598Z,95181
2018-01-26T04:25:37.717Z,95187
2018-01-26T04:28:05.816Z,95181
2018-01-26T04:30:33.901Z,95175
2018-01-26T04:33:02.031Z,95173
2018-01-26T04:35:30.883Z,95173
2018-01-26T04:37:59.016Z,95161
2018-01-26T04:40:27.107Z,95169
2018-01-26T04:42:55.186Z,95159
2018-01-26T04:45:23.275Z,95169
2018-01-26T04:47:51.357Z,95170
2018-01-26T04:50:19.475Z,95167
2018-01-26T04:52:47.591Z,95170
2018-01-26T04:55:15.787Z,95165
2018-01-26T04:57:43.888Z,95168
2018-01-26T05:00:11.989Z,95165
2018-01-26T05:02:40.080Z,95162
2018-01-26T05:05:08.167Z,95160
2018-01-26T05:07:36.235Z,95166
2018-01-26T05:10:04.358Z,95170
2018-01-26T05:12:32.439Z,95157
2018-01-26T05:15:00.538Z,95159
2018-01-26T05:17:28.636Z,95168
2018-01-26T05:19:56.718Z,95169
2018-01-26T05:22:24.877Z,95170
2018-01-26T05:24:53.031Z,95173
2018-01-26T05:27:21.126Z,95181
2018-01-26T05:29:49.212Z,95185
2018-01-26T05:32:17.302Z,95183
2018-01-26T05:34:45.422Z,95194
2018-01-26T05:37:13.528Z,95201
2018-01-26T05:39:42.373Z,95197
2018-01-26T05:42:10.887Z,95197
2018-01-26T05:44:39.789Z,95205
2018-01-26T05:47:07.884Z,95212
2018-01-26T05:49:35.977Z,95222
2018-01-26T05:52:04.062Z,95224
2018-01-26T05:54:32.165Z,95223
2018-01-26T05:57:00.265Z,95224
2018-01-26T05:59:28.389Z,95219
2018-01-26T06:01:56.483Z,95217
2018-01-26T06:04:24.584Z,95235
2018-01-26T06:06:52.726Z,95233
2018-01-26T06:09:20.825Z,95242
2018-01-26T06:11:48.915Z,95229
2018-01-26T06:14:17.011Z,95234
2018-01-26T06:16:45.115Z,95242
2018-01-26T06:19:14.001Z,95234
2018-01-26T06:21:42.085Z,95228
2018-01-26T06:24:10.966Z,95233
2018-01-26T06:26:39.105Z,95236
2018-01-26T06:29:07.203Z,95224
2018-01-26T06:31:35.365Z,95222
2018-01-26T06:34:03.454Z,95229
2018-01-26T06:36:32.258Z,95234
2018-01-26T06:40:40.706Z,95233
2018-01-26T06:43:08.840Z,95222
2018-01-26T06:45:37.330Z,95231
2018-01-26T06:48:06.166Z,95219
2018-01-26T06:50:34.272Z,95221
2018-01-26T06:53:02.376Z,95211
2018-01-26T06:55:30.458Z,95206
2018-01-26T06:57:58.572Z,95209
2018-01-26T07:00:26.692Z,95211
2018-01-26T07:02:54.960Z,95220
2018-01-26T07:05:23.046Z,95217
2018-01-26T07:07:51.134Z,95214
2018-01-26T07:10:19.711Z,95209
2018-01-26T07:12:47.832Z,95206
2018-01-26T07:15:15.926Z,95207
2018-01-26T07:17:44.051Z,95208
2018-01-26T07:20:12.171Z,95197
2018-01-26T07:22:40.275Z,95208
2018-01-26T07:25:08.379Z,95212
2018-01-26T07:27:36.474Z,95216
2018-01-26T07:30:04.671Z,95224
2018-01-26T07:32:33.513Z,95229
2018-01-26T07:35:01.603Z,95229
2018-01-26T07:37:29.695Z,95238
2018-01-26T07:39:57.783Z,95234
2018-01-26T07:42:25.931Z,95230
2018-01-26T07:44:54.111Z,95232
2018-01-26T07:47:22.201Z,95228
2018-01-26T07:49:50.307Z,95233
2018-01-26T07:52:19.151Z,95220
2018-01-26T07:54:47.995Z,95222
2018-01-26T07:57:16.123Z,95231
2018-01-26T07:59:44.216Z,95227
2018-01-26T08:02:12.297Z,95232
2018-01-26T08:04:40.372Z,95227
2018-01-26T08:07:08.470Z,95243
2018-01-26T08:09:36.751Z,95235
2018-01-26T08:12:05.026Z,95227
2018-01-26T08:14:33.131Z,95230
2018-01-26T08:17:01.214Z,95230
2018-01-26T08:19:29.320Z,95237
2018-01-26T08:21:57.408Z,95227
2018-01-26T08:24:25.486Z,95235
2018-01-26T08:26:53.580Z,95232
2018-01-26T08:29:21.656Z,95233
2018-01-26T08:31:49.782Z,95233
2018-01-26T08:34:17.958Z,95224
2018-01-26T08:36:46.076Z,95222
2018-01-26T08:39:14.931Z,95220
2018-01-26T08:41:43.029Z,95221
2018-01-26T08:44:11.883Z,95217
2018-01-26T08:46:40.752Z,95228
2018-01-26T08:49:08.850Z,95222
2018-01-26T08:51:36.925Z,95222
2018-01-26T08:54:05.019Z,95219
2018-01-26T08:56:33.115Z,95221
2018-01-26T08:59:01.261Z,95219
2018-01-26T09:01:29.336Z,95223
2018-01-26T09:03:57.421Z,95226
2018-01-26T09:06:25.497Z,95232
2018-01-26T09:08:53.597Z,95236
2018-01-26T09:11:21.716Z,95241
2018-01-26T09:13:49.802Z,95242
2018-01-26T09:16:18.664Z,95244
2018-01-26T09:18:46.738Z,95241
2018-01-26T09:21:14.878Z,95252
2018-01-26T09:23:42.981Z,95248
2018-01-26T09:26:11.079Z,95246
2018-01-26T09:28:39.161Z,95249
2018-01-26T09:31:07.253Z,95256
2018-01-26T09:33:35.329Z,95242
2018-01-26T09:36:03.418Z,95252
2018-01-26T09:38:31.514Z,95246
2018-01-26T09:40:59.730Z,95251
2018-01-26T09:43:27.858Z,95255
2018-01-26T09:45:55.965Z,95242
2018-01-26T09:48:24.673Z,95251
2018-01-26T09:50:52.800Z,95242
2018-01-26T09:53:20.972Z,95241
2018-01-26T09:55:49.092Z,95236
2018-01-26T09:58:17.184Z,95241
2018-01-26T10:00:45.278Z,95238
2018-01-26T10:03:13.371Z,95241
2018-01-26T10:05:41.463Z,95245
2018-01-26T10:08:09.571Z,95249
2018-01-26T10:10:37.713Z,95267
2018-01-26T10:13:05.832Z,95256
2018-01-26T10:15:33.935Z,95264
2018-01-26T10:18:02.659Z,95261
2018-01-26T10:20:30.783Z,95268
2018-01-26T10:22:59.023Z,95255
2018-01-26T10:25:27.229Z,95255
2018-01-26T10:27:56.279Z,95251
2018-01-26T10:30:24.393Z,95257
2018-01-26T10:32:52.469Z,95256
2018-01-26T10:35:20.559Z,95247
2018-01-26T10:37:48.643Z,95249
2018-01-26T10:40:16.749Z,95246
2018-01-26T10:42:44.987Z,95251
2018-01-26T10:45:13.163Z,95244
2018-01-26T10:47:41.271Z,95251
2018-01-26T10:50:09.368Z,95256
2018-01-26T10:52:37.457Z,95255
2018-01-26T10:55:05.580Z,95251
2018-01-26T10:57:33.664Z,95253
2018-01-26T11:00:01.812Z,95256
2018-01-26T11:02:29.930Z,95259
2018-01-26T11:04:58.080Z,95261
2018-01-26T11:07:26.164Z,95255
2018-01-26T11:09:54.263Z,95258
2018-01-26T11:12:22.363Z,95262
2018-01-26T11:14:50.858Z,95260
2018-01-26T11:17:19.596Z,95261
2018-01-26T11:19:47.728Z,95270
2018-01-26T11:22:15.950Z,95270
2018-01-26T11:24:44.189Z,95276
2018-01-26T11:27:12.399Z,95275
2018-01-26T11:29:40.632Z,95277
2018-01-26T11:32:08.756Z,95283
2018-01-26T11:34:41.479Z,95291
2018-01-26T11:37:09.586Z,95293
2018-01-26T11:39:37.679Z,95295
2018-01-26T11:42:06.587Z,95297
2018-01-26T11:44:34.699Z,95303
2018-01-26T11:47:02.791Z,95303
2018-01-26T11:49:30.928Z,95309
2018-01-26T11:51:59.025Z,95303
2018-01-26T11:54:27.127Z,95295
2018-01-26T11:56:55.221Z,95301
2018-01-26T11:59:23.321Z,95308
2018-01-26T12:01:51.491Z,95306
2018-01-26T12:04:19.595Z,95305
2018-01-26T12:06:47.687Z,95305
2018-01-26T12:09:15.833Z,95304
2018-01-26T12:11:43.940Z,95296
2018-01-26T12:14:12.070Z,95293
2018-01-26T12:16:40.952Z,95293
2018-01-26T12:19:09.430Z,95302
2018-01-26T12:21:37.539Z,95306
2018-01-26T12:24:05.662Z,95292
2018-01-26T12:26:33.742Z,95302
2018-01-26T12:29:01.845Z,95315
2018-01-26T12:31:29.968Z,95309
2018-01-26T12:33:58.060Z,95309
2018-01-26T12:36:26.160Z,95315
2018-01-26T12:38:54.252Z,95323
2018-01-26T12:41:23.122Z,95328
2018-01-26T12:43:51.210Z,95325
2018-01-26T12:46:20.196Z,95329
2018-01-26T12:48:48.430Z,95338
2018-01-26T12:51:16.541Z,95322
2018-01-26T12:53:44.654Z,95328
2018-01-26T12:56:12.766Z,95334
2018-01-26T12:58:40.864Z,95332
2018-01-26T13:01:08.959Z,95338
2018-01-26T13:03:37.127Z,95341
2018-01-26T13:06:05.227Z,95342
2018-01-26T13:08:33.343Z,95334
2018-01-26T13:11:01.447Z,95351
2018-01-26T13:13:30.341Z,95357
2018-01-26T13:15:58.441Z,95348
2018-01-26T13:18:26.553Z,95345
2018-01-26T13:20:54.729Z,95352
2018-01-26T13:23:22.921Z,95349
2018-01-26T13:25:51.140Z,95357
2018-01-26T13:28:19.240Z,95350
2018-01-26T13:30:47.396Z,95349
2018-01-26T13:33:15.510Z,95342
2018-01-26T13:35:44.365Z,95353
2018-01-26T13:38:12.596Z,95364
2018-01-26T13:40:40.779Z,95369
2018-01-26T13:43:08.853Z,95362
2018-01-26T13:45:36.976Z,95363
2018-01-26T13:48:05.125Z,95364
2018-01-26T13:50:33.978Z,95366
2018-01-26T13:53:02.073Z,95365
2018-01-26T13:55:30.194Z,95367
2018-01-26T13:57:59.203Z,95372
2018-01-26T14:00:27.322Z,95373
2018-01-26T14:02:55.795Z,95371
2018-01-26T14:05:24.679Z,95370
2018-01-26T14:07:52.774Z,95378
2018-01-26T14:10:20.878Z,95380
2018-01-26T14:12:48.972Z,95384
2018-01-26T14:15:17.103Z,95383
2018-01-26T14:17:45.373Z,95386
2018-01-26T14:20:13.641Z,95379
2018-01-26T14:22:41.836Z,95377
2018-01-26T14:25:09.951Z,95381
2018-01-26T14:27:38.047Z,95387
2018-01-26T14:30:06.627Z,95381
2018-01-26T14:32:34.849Z,95392
2018-01-26T14:35:02.971Z,95402
2018-01-26T14:37:31.894Z,95403
2018-01-26T14:40:00.004Z,95407
2018-01-26T14:42:28.110Z,95409
2018-01-26T14:44:56.209Z,95410
2018-01-26T14:47:24.348Z,95414
2018-01-26T14:49:53.211Z,95415
2018-01-26T14:52:21.311Z,95421
2018-01-26T14:54:50.186Z,95417
2018-01-26T14:57:18.389Z,95416
2018-01-26T14:59:46.513Z,95412
2018-01-26T15:02:14.693Z,95411
2018-01-26T15:04:42.784Z,95431
2018-01-26T15:07:10.896Z,95434
2018-01-26T15:09:38.991Z,95433
2018-01-26T15:12:07.094Z,95434
2018-01-26T15:14:35.197Z,95430
2018-01-26T15:17:03.285Z,95424
2018-01-26T15:19:31.400Z,95434
2018-01-26T15:21:59.477Z,95449
2018-01-26T15:24:27.581Z,95462
2018-01-26T15:26:55.674Z,95464
2018-01-26T15:29:23.777Z,95453
2018-01-26T15:31:51.856Z,95463
2018-01-26T15:34:20.037Z,95474
2018-01-26T15:36:48.138Z,95477
2018-01-26T15:39:16.245Z,95484
2018-01-26T15:41:44.328Z,95492
2018-01-26T15:44:12.419Z,95488
2018-01-26T15:46:40.516Z,95485
2018-01-26T15:49:08.594Z,95489
2018-01-26T15:51:36.781Z,95495
2018-01-26T15:54:05.049Z,95505
2018-01-26T15:56:33.312Z,95505
2018-01-26T15:59:01.513Z,95505
2018-01-26T16:01:29.709Z,95498
2018-01-26T16:03:57.801Z,95504
2018-01-26T16:06:25.923Z,95503
2018-01-26T16:08:55.787Z,95507
2018-01-26T16:11:23.967Z,95515
2018-01-26T16:13:52.095Z,95524
2018-01-26T16:16:20.201Z,95517
2018-01-26T16:18:48.323Z,95513
2018-01-26T16:21:16.420Z,95522
2018-01-26T16:23:44.526Z,95527
2018-01-26T16:26:12.607Z,95535
2018-01-26T16:28:40.724Z,95540
2018-01-26T16:31:08.810Z,95536
2018-01-26T16:33:37.007Z,95538
2018-01-26T16:36:05.228Z,95548
2018-01-26T16:38:34.108Z,95524
2018-01-26T16:41:02.214Z,95537
2018-01-26T16:43:30.380Z,95543
2018-01-26T16:45:58.460Z,95536
2018-01-26T16:48:26.562Z,95553
2018-01-26T16:50:54.648Z,95566
2018-01-26T16:53:23.408Z,95575
2018-01-26T16:55:51.498Z,95569
2018-01-26T16:58:19.616Z,95572
2018-01-26T17:00:47.714Z,95575
2018-01-26T17:03:15.808Z,95604
2018-01-26T17:05:43.925Z,95593
2018-01-26T17:08:12.021Z,95603
2018-01-26T17:10:40.679Z,95602
2018-01-26T17:13:09.574Z,95596
2018-01-26T17:15:37.667Z,95603
2018-01-26T17:18:05.794Z,95622
2018-01-26T17:20:33.909Z,95619
2018-01-26T17:23:02.001Z,95619
2018-01-26T17:25:30.105Z,95630
2018-01-26T17:27:58.207Z,95623
2018-01-26T17:30:27.094Z,95615
2018-01-26T17:32:55.191Z,95632
2018-01-26T17:35:23.288Z,95622
2018-01-26T17:37:51.466Z,95637
2018-01-26T17:40:19.576Z,95641
2018-01-26T17:42:47.691Z,95637
2018-01-26T17:45:15.879Z,95647
2018-01-26T17:47:44.023Z,95644
2018-01-26T17:50:12.701Z,95647
2018-01-26T17:52:41.737Z,95648
2018-01-26T17:55:09.897Z,95649
2018-01-26T17:57:38.008Z,95652
2018-01-26T18:00:06.109Z,95652
2018-01-26T18:02:34.213Z,95656
2018-01-26T18:05:02.312Z,95649
2018-01-26T18:07:30.443Z,95659
2018-01-26T18:09:58.636Z,95655
2018-01-26T18:12:26.870Z,95668
2018-01-26T18:14:55.428Z,95661
2018-01-26T18:17:23.512Z,95669
2018-01-26T18:19:51.623Z,95678
2018-01-26T18:22:19.714Z,95663
2018-01-26T18:24:47.826Z,95670
2018-01-26T18:27:15.926Z,95668
2018-01-26T18:29:44.056Z,95679
2018-01-26T18:32:12.741Z,95685
2018-01-26T18:34:40.901Z,95682
2018-01-26T18:37:09.251Z,95681
2018-01-26T18:39:38.519Z,95698
2018-01-26T18:42:06.929Z,95705
2018-01-26T18:44:35.279Z,95705
2018-01-26T18:47:03.550Z,95701
2018-01-26T18:49:31.885Z,95694
2018-01-26T18:52:00.009Z,95703
2018-01-26T18:54:28.187Z,95707
2018-01-26T18:56:56.537Z,95699
2018-01-26T18:59:24.831Z,95704
2018-01-26T19:01:53.612Z,95693
2018-01-26T19:04:21.765Z,95702
2018-01-26T19:06:51.092Z,95701
2018-01-26T19:09:19.191Z,95706
2018-01-26T19:11:47.375Z,95704
2018-01-26T19:14:17.744Z,95709
2018-01-26T19:16:45.869Z,95704
2018-01-26T19:19:14.028Z,95709
2018-01-26T19:21:42.547Z,95722
2018-01-26T19:24:11.141Z,95709
2018-01-26T19:26:39.498Z,95709
2018-01-26T19:29:07.772Z,95718
2018-01-26T19:31:35.987Z,95718
2018-01-26T19:34:04.230Z,95721
2018-01-26T19:36:33.530Z,95725
2018-01-26T19:39:02.312Z,95729
2018-01-26T19:41:30.497Z,95730
2018-01-26T19:43:59.449Z,95742
2018-01-26T19:46:27.607Z,95733
2018-01-26T19:48:55.864Z,95731
2018-01-26T19:51:24.033Z,95738
2018-01-26T19:53:52.225Z,95743
2018-01-26T19:56:20.420Z,95746
2018-01-26T19:58:48.581Z,95750
2018-01-26T20:01:16.706Z,95746
2018-01-26T20:04:02.644Z,95759
2018-01-26T20:06:54.143Z,95764
2018-01-26T20:09:26.219Z,95772
2018-01-26T20:11:59.921Z,95778
2018-01-26T20:14:28.086Z,95775
2018-01-26T20:16:56.231Z,95784
2018-01-26T20:19:24.398Z,95794
2018-01-26T20:21:52.537Z,95788
2018-01-26T20:24:20.681Z,95793
2018-01-26T20:26:48.827Z,95800
2018-01-26T20:29:17.163Z,95805
2018-01-26T20:31:45.338Z,95795
2018-01-26T20:34:13.522Z,95804
2018-01-26T20:36:42.482Z,95803
2018-01-26T20:39:10.660Z,95809
2018-01-26T20:41:39.611Z,95803
2018-01-26T20:44:07.758Z,95807
2018-01-26T20:46:35.960Z,95811
2018-01-26T20:49:04.339Z,95815
2018-01-26T20:51:32.465Z,95823
2018-01-26T20:54:00.706Z,95834
2018-01-26T20:56:28.865Z,95819
2018-01-26T20:58:57.097Z,95828
2018-01-26T21:01:25.265Z,95826
2018-01-26T21:03:53.519Z,95824
2018-01-26T21:06:21.722Z,95828
2018-01-26T21:08:49.980Z,95840
2018-01-26T21:11:18.207Z,95831
2018-01-26T21:13:46.402Z,95837
2018-01-26T21:16:14.534Z,95847
2018-01-26T21:18:43.002Z,95854
2018-01-26T21:21:11.122Z,95854
2018-01-26T21:23:39.283Z,95852
2018-01-26T21:26:07.409Z,95856
2018-01-26T21:28:35.607Z,95854
2018-01-26T21:31:04.468Z,95860
2018-01-26T21:33:32.619Z,95863
2018-01-26T21:36:00.778Z,95861
2018-01-26T21:38:28.868Z,95869
2018-01-26T21:40:56.990Z,95867
2018-01-26T21:43:25.865Z,95864
2018-01-26T21:45:53.988Z,95868
2018-01-26T21:48:22.095Z,95874
2018-01-26T21:50:50.251Z,95869
2018-01-26T21:53:18.358Z,95881
2018-01-26T21:55:47.260Z,95865
2018-01-26T21:58:15.347Z,95884
2018-01-26T22:00:43.459Z,95892
2018-01-26T22:03:11.557Z,95883
2018-01-26T22:05:39.707Z,95896
2018-01-26T22:08:07.898Z,95895
2018-01-26T22:10:36.042Z,95900
2018-01-26T22:13:04.138Z,95912
2018-01-26T22:15:32.466Z,95910
2018-01-26T22:18:00.594Z,95916
2018-01-26T22:20:28.705Z,95912
2018-01-26T22:22:57.074Z,95915
2018-01-26T22:25:25.180Z,95915
2018-01-26T22:27:53.290Z,95929
2018-01-26T22:30:21.384Z,95927
2018-01-26T22:32:49.499Z,95936
2018-01-26T22:35:17.590Z,95944
2018-01-26T22:37:45.692Z,95947
2018-01-26T22:40:14.569Z,95942
2018-01-26T22:42:42.673Z,95951
2018-01-26T22:45:10.873Z,95959
2018-01-26T22:47:38.977Z,95953
2018-01-26T22:50:07.085Z,95954
2018-01-26T22:52:36.215Z,95958
2018-01-26T22:55:04.308Z,95967
2018-01-26T22:57:32.399Z,95966
2018-01-26T23:00:00.591Z,95974
2018-01-26T23:02:29.437Z,95977
2018-01-26T23:04:57.545Z,95980
2018-01-26T23:07:25.637Z,95986
2018-01-26T23:09:53.724Z,95984
2018-01-26T23:12:21.830Z,95984
2018-01-26T23:14:49.944Z,95984
2018-01-26T23:17:18.015Z,95989
2018-01-26T23:19:46.113Z,95986
2018-01-26T23:22:14.348Z,96000
2018-01-26T23:24:42.614Z,96006
2018-01-26T23:27:10.805Z,96013
2018-01-26T23:29:39.227Z,96008
2018-01-26T23:32:07.354Z,96032
2018-01-26T23:34:36.276Z,96024
2018-01-26T23:37:04.379Z,96031
2018-01-26T23:39:32.522Z,96035
2018-01-26T23:42:00.704Z,96040
2018-01-26T23:44:28.789Z,96035
2018-01-26T23:46:56.884Z,96035
2018-01-26T23:49:24.968Z,96031
2018-01-26T23:51:53.078Z,96026
2018-01-26T23:54:21.158Z,96041
2018-01-26T23:56:49.253Z,96031
2018-01-26T23:59:17.357Z,96041
